Time;durP1;ratioP1;P1;durP2;ratioP2;P2;SDS_P1;SDS_P2;PMS_P1;PMS_P2;Temp;Humidity;BMP_temperature;BMP_pressure;BME280_temperature;BME280_humidity;BME280_pressure;Samples;Min_cycle;Max_cycle;Signal;HPM_P1;HPM_P2
2023/04/15 00:01:18;;;;;;;;;;;;;;;;;;5047254;28;44605;-93
2023/04/15 00:03:45;;;;;;;;;;;;;;;;;;5047817;28;42952;-86
2023/04/15 00:06:11;;;;;;;;;;;;;;;;;;5047421;28;43514;-80
2023/04/15 00:08:37;;;;;;;;;;;;;;;;;;5047691;28;42967;-82
2023/04/15 00:11:04;;;;;;;;;;;;;;;;;;5047378;28;42918;-80
2023/04/15 00:13:30;;;;;;;;;;;;;;;;;;5047432;28;43175;-89
2023/04/15 00:15:57;;;;;;;;;;;;;;;;;;5028774;28;44258;-85
2023/04/15 00:18:22;;;;;;;;;;;;;;;;;;5041280;28;43016;-81
2023/04/15 00:20:48;;;;;;;;;;;;;;;;;;5009062;28;44514;-80
2023/04/15 00:23:14;;;;;;;;;;;;;;;;;;5027167;28;42953;-86
2023/04/15 00:25:40;;;;;;;;;;;;;;;;;;5007788;28;44236;-80
2023/04/15 00:28:07;;;;;;;;;;;;;;;;;;5026690;28;43191;-90
2023/04/15 00:30:33;;;;;;;;;;;;;;;;;;5026723;28;42826;-88
2023/04/15 00:32:59;;;;;;;;;;;;;;;;;;5026845;28;42894;-90
2023/04/15 00:35:25;;;;;;;;;;;;;;;;;;5012232;28;43266;-79
2023/04/15 00:37:51;;;;;;;;;;;;;;;;;;5006989;28;42898;-79
2023/04/15 00:40:17;;;;;;;;;;;;;;;;;;5006986;28;42822;-79
2023/04/15 00:42:44;;;;;;;;;;;;;;;;;;5003203;28;43077;-80
2023/04/15 00:45:10;;;;;;;;;;;;;;;;;;5006510;28;43567;-78
2023/04/15 00:47:36;;;;;;;;;;;;;;;;;;5006291;28;42941;-79
2023/04/15 00:50:02;;;;;;;;;;;;;;;;;;5023686;28;42966;-79
2023/04/15 00:52:28;;;;;;;;;;;;;;;;;;5026112;28;42800;-78
2023/04/15 00:54:53;;;;;;;;;;;;;;;;;;5027259;28;43030;-79
2023/04/15 00:57:20;;;;;;;;;;;;;;;;;;5026354;28;42893;-79
2023/04/15 00:59:46;;;;;;;;;;;;;;;;;;5026191;28;43559;-79
2023/04/15 01:02:12;;;;;;;;;;;;;;;;;;5025268;28;43004;-79
2023/04/15 01:04:38;;;;;;;;;;;;;;;;;;5025922;28;42957;-92
2023/04/15 01:07:04;;;;;;;;;;;;;;;;;;5025420;28;42989;-80
2023/04/15 01:09:30;;;;;;;;;;;;;;;;;;5026141;28;42840;-80
2023/04/15 01:11:55;;;;;;;;;;;;;;;;;;5037402;28;42992;-79
2023/04/15 01:14:21;;;;;;;;;;;;;;;;;;5046200;28;43349;-79
2023/04/15 01:16:47;;;;;;;;;;;;;;;;;;5046179;28;42904;-79
2023/04/15 01:19:13;;;;;;;;;;;;;;;;;;5027972;28;44680;-79
2023/04/15 01:21:39;;;;;;;;;;;;;;;;;;5045679;28;42964;-78
2023/04/15 01:24:05;;;;;;;;;;;;;;;;;;5027580;28;43041;-78
2023/04/15 01:26:32;;;;;;;;;;;;;;;;;;5045161;28;42901;-79
2023/04/15 01:28:58;;;;;;;;;;;;;;;;;;5045302;28;42865;-80
2023/04/15 01:31:23;;;;;;;;;;;;;;;;;;5027657;28;42806;-78
2023/04/15 01:33:49;;;;;;;;;;;;;;;;;;5045981;28;42811;-78
2023/04/15 01:36:15;;;;;;;;;;;;;;;;;;5046769;28;43081;-79
2023/04/15 01:38:41;;;;;;;;;;;;;;;;;;5043891;28;43712;-79
2023/04/15 01:41:07;;;;;;;;;;;;;;;;;;5045274;28;43210;-78
2023/04/15 01:43:33;;;;;;;;;;;;;;;;;;5045925;28;44419;-79
2023/04/15 01:45:59;;;;;;;;;;;;;;;;;;5044999;28;43063;-80
2023/04/15 01:48:26;;;;;;;;;;;;;;;;;;5044966;28;42941;-80
2023/04/15 01:50:52;;;;;;;;;;;;;;;;;;5045414;28;42997;-78
2023/04/15 01:53:18;;;;;;;;;;;;;;;;;;5045688;28;43639;-81
2023/04/15 01:55:44;;;;;;;;;;;;;;;;;;5044758;28;43170;-78
2023/04/15 01:58:10;;;;;;;;;;;;;;;;;;5045571;28;42806;-83
2023/04/15 02:00:36;;;;;;;;;;;;;;;;;;5045534;28;42897;-78
2023/04/15 02:03:02;;;;;;;;;;;;;;;;;;5044946;28;43855;-78
2023/04/15 02:05:28;;;;;;;;;;;;;;;;;;5045589;28;43185;-80
2023/04/15 02:07:54;;;;;;;;;;;;;;;;;;5045329;28;43514;-79
2023/04/15 02:10:20;;;;;;;;;;;;;;;;;;5044311;28;42887;-78
2023/04/15 02:12:46;;;;;;;;;;;;;;;;;;5045849;28;43517;-86
2023/04/15 02:15:12;;;;;;;;;;;;;;;;;;5044414;28;43081;-78
2023/04/15 02:17:38;;;;;;;;;;;;;;;;;;5045286;28;42937;-78
2023/04/15 02:20:07;;;;;;;;;;;;;;;;;;5044976;28;42834;-78
2023/04/15 02:22:33;;;;;;;;;;;;;;;;;;5044667;28;43412;-78
2023/04/15 02:24:59;;;;;;;;;;;;;;;;;;5043989;28;42938;-80
2023/04/15 02:27:25;;;;;;;;;;;;;;;;;;5043753;28;43047;-78
2023/04/15 02:29:51;;;;;;;;;;;;;;;;;;5045133;28;43141;-80
2023/04/15 02:32:17;;;;;;;;;;;;;;;;;;5046461;28;42882;-88
2023/04/15 02:34:43;;;;;;;;;;;;;;;;;;5044381;28;42782;-90
2023/04/15 02:37:09;;;;;;;;;;;;;;;;;;5044833;28;43801;-90
2023/04/15 02:39:35;;;;;;;;;;;;;;;;;;5042572;28;43011;-81
2023/04/15 02:42:01;;;;;;;;;;;;;;;;;;5044245;28;42896;-84
2023/04/15 02:44:27;;;;;;;;;;;;;;;;;;5044099;28;42802;-87
2023/04/15 02:46:53;;;;;;;;;;;;;;;;;;5045172;28;43758;-87
2023/04/15 02:49:19;;;;;;;;;;;;;;;;;;5044193;28;42944;-89
2023/04/15 02:51:48;;;;;;;;;;;;;;;;;;5044410;28;44129;-91
2023/04/15 02:54:14;;;;;;;;;;;;;;;;;;5043434;28;43004;-78
2023/04/15 02:56:40;;;;;;;;;;;;;;;;;;5042546;28;42952;-87
2023/04/15 02:59:06;;;;;;;;;;;;;;;;;;5043960;28;43046;-84
2023/04/15 03:01:32;;;;;;;;;;;;;;;;;;5044595;28;43538;-77
2023/04/15 03:03:58;;;;;;;;;;;;;;;;;;5044518;28;42825;-82
2023/04/15 03:06:23;;;;;;;;;;;;;;;;;;5040124;28;43708;-89
2023/04/15 03:08:50;;;;;;;;;;;;;;;;;;5043829;28;42940;-80
2023/04/15 03:11:16;;;;;;;;;;;;;;;;;;5044082;28;43505;-80
2023/04/15 03:13:42;;;;;;;;;;;;;;;;;;5044583;28;42846;-82
2023/04/15 03:16:08;;;;;;;;;;;;;;;;;;5043629;28;42925;-78
2023/04/15 03:18:34;;;;;;;;;;;;;;;;;;5043260;28;42897;-77
2023/04/15 03:21:00;;;;;;;;;;;;;;;;;;5043859;28;42803;-79
2023/04/15 03:23:26;;;;;;;;;;;;;;;;;;5044123;28;42915;-78
2023/04/15 03:25:54;;;;;;;;;;;;;;;;;;5043218;28;42918;-78
2023/04/15 03:28:20;;;;;;;;;;;;;;;;;;5044570;28;42965;-78
2023/04/15 03:30:46;;;;;;;;;;;;;;;;;;5043615;28;44026;-78
2023/04/15 03:33:12;;;;;;;;;;;;;;;;;;5044579;28;42842;-78
2023/04/15 03:35:38;;;;;;;;;;;;;;;;;;5025164;28;44658;-77
2023/04/15 03:38:04;;;;;;;;;;;;;;;;;;5042327;28;42852;-81
2023/04/15 03:40:30;;;;;;;;;;;;;;;;;;5043428;28;43071;-78
2023/04/15 03:42:55;;;;;;;;;;;;;;;;;;5025122;28;43003;-78
2023/04/15 03:45:21;;;;;;;;;;;;;;;;;;5041512;28;43090;-78
2023/04/15 03:47:48;;;;;;;;;;;;;;;;;;5043777;28;42897;-79
2023/04/15 03:50:14;;;;;;;;;;;;;;;;;;5042288;28;43432;-81
2023/04/15 03:52:40;;;;;;;;;;;;;;;;;;5043716;28;42969;-78
2023/04/15 03:55:07;;;;;;;;;;;;;;;;;;5042624;28;43551;-88
2023/04/15 03:57:36;;;;;;;;;;;;;;;;;;5044263;28;42729;-91
2023/04/15 04:00:02;;;;;;;;;;;;;;;;;;5042912;28;42940;-90
2023/04/15 04:02:28;;;;;;;;;;;;;;;;;;5041535;28;42866;-88
2023/04/15 04:04:54;;;;;;;;;;;;;;;;;;5025110;28;44104;-93
2023/04/15 04:07:20;;;;;;;;;;;;;;;;;;5044165;28;43128;-90
2023/04/15 04:09:46;;;;;;;;;;;;;;;;;;5042718;28;42899;-93
2023/04/15 04:12:12;;;;;;;;;;;;;;;;;;5028490;28;42965;-93
2023/04/15 04:14:38;;;;;;;;;;;;;;;;;;5046313;28;43049;-91
2023/04/15 04:17:04;;;;;;;;;;;;;;;;;;5047313;28;42787;-92
2023/04/15 04:19:30;;;;;;;;;;;;;;;;;;5045309;28;42936;-92
2023/04/15 04:21:56;;;;;;;;;;;;;;;;;;5046445;28;43083;-82
2023/04/15 04:24:21;;;;;;;;;;;;;;;;;;5046172;28;43027;-91
2023/04/15 04:26:47;;;;;;;;;;;;;;;;;;5047381;28;42912;-79
2023/04/15 04:29:13;;;;;;;;;;;;;;;;;;5046630;28;42784;-80
2023/04/15 04:31:39;;;;;;;;;;;;;;;;;;5046252;28;42967;-78
2023/04/15 04:34:05;;;;;;;;;;;;;;;;;;5046639;28;43463;-79
2023/04/15 04:36:31;;;;;;;;;;;;;;;;;;5046816;28;42953;-79
2023/04/15 04:38:57;;;;;;;;;;;;;;;;;;5045645;28;43560;-79
2023/04/15 04:41:23;;;;;;;;;;;;;;;;;;5046485;28;42918;-79
2023/04/15 04:43:48;;;;;;;;;;;;;;;;;;5046590;28;43550;-83
2023/04/15 04:46:14;;;;;;;;;;;;;;;;;;5045576;28;42928;-82
2023/04/15 04:48:40;;;;;;;;;;;;;;;;;;5046183;28;43599;-79
2023/04/15 04:51:07;;;;;;;;;;;;;;;;;;5045034;28;43826;-78
2023/04/15 04:53:32;;;;;;;;;;;;;;;;;;5027261;28;43125;-79
2023/04/15 04:55:58;;;;;;;;;;;;;;;;;;5046591;28;43046;-80
2023/04/15 04:58:24;;;;;;;;;;;;;;;;;;5046696;28;43075;-77
2023/04/15 05:00:50;;;;;;;;;;;;;;;;;;5044202;28;43027;-79
2023/04/15 05:03:16;;;;;;;;;;;;;;;;;;5046015;28;42993;-79
2023/04/15 05:05:42;;;;;;;;;;;;;;;;;;5046378;28;42927;-80
2023/04/15 05:08:08;;;;;;;;;;;;;;;;;;5044731;28;44019;-79
2023/04/15 05:10:34;;;;;;;;;;;;;;;;;;5028026;28;42798;-79
2023/04/15 05:13:00;;;;;;;;;;;;;;;;;;5045864;28;42923;-79
2023/04/15 05:15:26;;;;;;;;;;;;;;;;;;5045705;28;42943;-78
2023/04/15 05:17:52;;;;;;;;;;;;;;;;;;5046050;28;42937;-78
2023/04/15 05:20:17;;;;;;;;;;;;;;;;;;5045927;28;42929;-79
2023/04/15 05:22:43;;;;;;;;;;;;;;;;;;5043989;28;43008;-79
2023/04/15 05:25:09;;;;;;;;;;;;;;;;;;5044424;28;43075;-79
2023/04/15 05:27:35;;;;;;;;;;;;;;;;;;5045176;28;43586;-79
2023/04/15 05:30:01;;;;;;;;;;;;;;;;;;5027866;28;43000;-79
2023/04/15 05:32:27;;;;;;;;;;;;;;;;;;5044464;28;43356;-83
2023/04/15 05:34:53;;;;;;;;;;;;;;;;;;5045650;28;43009;-78
2023/04/15 05:37:22;;;;;;;;;;;;;;;;;;5042391;28;42968;-81
2023/04/15 05:39:48;;;;;;;;;;;;;;;;;;5039682;28;43133;-87
2023/04/15 05:42:14;;;;;;;;;;;;;;;;;;5034802;28;42985;-79
2023/04/15 05:44:40;;;;;;;;;;;;;;;;;;5034006;28;42778;-78
2023/04/15 05:47:07;;;;;;;;;;;;;;;;;;5034343;28;43713;-79
2023/04/15 05:49:33;;;;;;;;;;;;;;;;;;5034296;28;42979;-79
2023/04/15 05:51:59;;;;;;;;;;;;;;;;;;5033371;28;43158;-79
2023/04/15 05:54:26;;;;;;;;;;;;;;;;;;5035906;28;42898;-79
2023/04/15 05:56:52;;;;;;;;;;;;;;;;;;5035337;28;42943;-79
2023/04/15 05:59:18;;;;;;;;;;;;;;;;;;5041492;28;42988;-79
2023/04/15 06:01:44;;;;;;;;;;;;;;;;;;5043881;28;43048;-80
2023/04/15 06:04:12;;;;;;;;;;;;;;;;;;5038388;28;44180;-78
2023/04/15 06:06:39;;;;;;;;;;;;;;;;;;5036629;28;43026;-77
2023/04/15 06:09:05;;;;;;;;;;;;;;;;;;5032297;28;44290;-77
2023/04/15 06:11:31;;;;;;;;;;;;;;;;;;5037525;28;43801;-78
2023/04/15 06:13:57;;;;;;;;;;;;;;;;;;5032583;28;43059;-77
2023/04/15 06:16:23;;;;;;;;;;;;;;;;;;5039128;28;43777;-79
2023/04/15 06:18:48;;;;;;;;;;;;;;;;;;5032572;28;43111;-81
2023/04/15 06:21:14;;;;;;;;;;;;;;;;;;5041142;28;42975;-81
2023/04/15 06:23:40;;;;;;;;;;;;;;;;;;5034749;28;43028;-82
2023/04/15 06:26:06;;;;;;;;;;;;;;;;;;5033227;28;42985;-81
2023/04/15 06:28:32;;;;;;;;;;;;;;;;;;5033930;28;42996;-78
2023/04/15 06:30:58;;;;;;;;;;;;;;;;;;5033156;28;43113;-78
2023/04/15 06:33:24;;;;;;;;;;;;;;;;;;5034063;28;42981;-78
2023/04/15 06:35:50;;;;;;;;;;;;;;;;;;5035316;28;43013;-78
2023/04/15 06:38:16;;;;;;;;;;;;;;;;;;5035448;28;43150;-77
2023/04/15 06:40:42;;;;;;;;;;;;;;;;;;5036977;28;43994;-78
2023/04/15 06:43:08;;;;;;;;;;;;;;;;;;5015635;28;42973;-78
2023/04/15 06:45:34;;;;;;;;;;;;;;;;;;5035457;28;43025;-87
2023/04/15 06:48:00;;;;;;;;;;;;;;;;;;5033555;28;43092;-89
2023/04/15 06:50:26;;;;;;;;;;;;;;;;;;5016004;28;44411;-85
2023/04/15 06:52:52;;;;;;;;;;;;;;;;;;5035735;28;43042;-84
2023/04/15 06:55:18;;;;;;;;;;;;;;;;;;5034711;28;43281;-80
2023/04/15 06:57:44;;;;;;;;;;;;;;;;;;5034476;28;42969;-81
2023/04/15 07:00:10;;;;;;;;;;;;;;;;;;5015340;28;44721;-79
2023/04/15 07:02:36;;;;;;;;;;;;;;;;;;5029246;28;43263;-80
2023/04/15 07:05:03;;;;;;;;;;;;;;;;;;5032907;28;43654;-80
2023/04/15 07:07:29;;;;;;;;;;;;;;;;;;5030733;28;43331;-82
2023/04/15 07:09:56;;;;;;;;;;;;;;;;;;5034178;28;43455;-80
2023/04/15 07:12:21;;;;;;;;;;;;;;;;;;5034509;28;42977;-80
2023/04/15 07:14:48;;;;;;;;;;;;;;;;;;5032898;28;43015;-79
2023/04/15 07:17:14;;;;;;;;;;;;;;;;;;5034287;28;42947;-80
2023/04/15 07:19:40;;;;;;;;;;;;;;;;;;5034389;28;43567;-86
2023/04/15 07:22:06;;;;;;;;;;;;;;;;;;5032754;28;43119;-79
2023/04/15 07:24:32;;;;;;;;;;;;;;;;;;5034533;28;45024;-79
2023/04/15 07:26:58;;;;;;;;;;;;;;;;;;5033069;28;43054;-79
2023/04/15 07:29:24;;;;;;;;;;;;;;;;;;5024205;28;45503;-80
2023/04/15 07:31:50;;;;;;;;;;;;;;;;;;5042492;28;43293;-86
2023/04/15 07:34:16;;;;;;;;;;;;;;;;;;5038914;28;43644;-79
2023/04/15 07:36:42;;;;;;;;;;;;;;;;;;5037323;28;43272;-79
2023/04/15 07:39:08;;;;;;;;;;;;;;;;;;5032180;28;42957;-81
2023/04/15 07:41:34;;;;;;;;;;;;;;;;;;5033582;28;43029;-79
2023/04/15 07:44:00;;;;;;;;;;;;;;;;;;5033344;28;42941;-80
2023/04/15 07:46:26;;;;;;;;;;;;;;;;;;5031719;28;43047;-79
2023/04/15 07:48:52;;;;;;;;;;;;;;;;;;5034998;28;43474;-79
2023/04/15 07:51:18;;;;;;;;;;;;;;;;;;5035876;28;43043;-88
2023/04/15 07:53:44;;;;;;;;;;;;;;;;;;5035650;28;43569;-90
2023/04/15 07:56:10;;;;;;;;;;;;;;;;;;5035695;28;42908;-78
2023/04/15 07:58:36;;;;;;;;;;;;;;;;;;5036791;28;43069;-77
2023/04/15 08:01:02;;;;;;;;;;;;;;;;;;5037134;28;42871;-79
2023/04/15 08:03:28;;;;;;;;;;;;;;;;;;5035107;28;42810;-80
2023/04/15 08:05:53;;;;;;;;;;;;;;;;;;5036614;28;42940;-89
2023/04/15 08:08:20;;;;;;;;;;;;;;;;;;5035857;28;42877;-88
2023/04/15 08:10:45;;;;;;;;;;;;;;;;;;5035555;28;43199;-88
2023/04/15 08:13:11;;;;;;;;;;;;;;;;;;5037177;28;43641;-89
2023/04/15 08:15:37;;;;;;;;;;;;;;;;;;5036179;28;43042;-87
2023/04/15 08:18:03;;;;;;;;;;;;;;;;;;5035179;28;42930;-86
2023/04/15 08:20:29;;;;;;;;;;;;;;;;;;5037164;28;42949;-89
2023/04/15 08:22:55;;;;;;;;;;;;;;;;;;5018465;28;44655;-89
2023/04/15 08:25:21;;;;;;;;;;;;;;;;;;5018277;28;42992;-88
2023/04/15 08:27:47;;;;;;;;;;;;;;;;;;5013072;28;44687;-87
2023/04/15 08:30:14;;;;;;;;;;;;;;;;;;5028328;28;42972;-84
2023/04/15 08:32:40;;;;;;;;;;;;;;;;;;5045765;28;42907;-89
2023/04/15 08:35:06;;;;;;;;;;;;;;;;;;5028634;28;43219;-88
2023/04/15 08:37:32;;;;;;;;;;;;;;;;;;5045507;28;43419;-83
2023/04/15 08:39:58;;;;;;;;;;;;;;;;;;5046699;28;43554;-89
2023/04/15 08:42:24;;;;;;;;;;;;;;;;;;5045535;28;43769;-86
2023/04/15 08:44:50;;;;;;;;;;;;;;;;;;5046470;28;43697;-90
2023/04/15 08:47:16;;;;;;;;;;;;;;;;;;5027649;28;43012;-88
2023/04/15 08:49:42;;;;;;;;;;;;;;;;;;5027152;28;42966;-89
2023/04/15 08:52:08;;;;;;;;;;;;;;;;;;5042410;28;42984;-87
2023/04/15 08:54:34;;;;;;;;;;;;;;;;;;5036854;28;42763;-86
2023/04/15 08:57:01;;;;;;;;;;;;;;;;;;5033971;28;43105;-86
2023/04/15 08:59:27;;;;;;;;;;;;;;;;;;5034578;28;43040;-85
2023/04/15 09:01:52;;;;;;;;;;;;;;;;;;5036227;28;42911;-85
2023/04/15 09:04:18;;;;;;;;;;;;;;;;;;5036305;28;43042;-85
2023/04/15 09:06:44;;;;;;;;;;;;;;;;;;5034159;28;43516;-82
2023/04/15 09:09:11;;;;;;;;;;;;;;;;;;5018328;28;43014;-84
2023/04/15 09:11:37;;;;;;;;;;;;;;;;;;5034210;28;43428;-83
2023/04/15 09:14:03;;;;;;;;;;;;;;;;;;5037582;28;42874;-84
2023/04/15 09:16:29;;;;;;;;;;;;;;;;;;5034812;28;43612;-82
2023/04/15 09:18:55;;;;;;;;;;;;;;;;;;5018078;28;42984;-84
2023/04/15 09:21:22;;;;;;;;;;;;;;;;;;5020199;28;43610;-81
2023/04/15 09:23:48;;;;;;;;;;;;;;;;;;5037508;28;42964;-84
2023/04/15 09:26:14;;;;;;;;;;;;;;;;;;5036169;28;42988;-83
2023/04/15 09:28:40;;;;;;;;;;;;;;;;;;5036028;28;43024;-83
2023/04/15 09:31:06;;;;;;;;;;;;;;;;;;5041277;28;42910;-84
2023/04/15 09:33:32;;;;;;;;;;;;;;;;;;5035278;28;42890;-80
2023/04/15 09:35:58;;;;;;;;;;;;;;;;;;5017012;28;43881;-84
2023/04/15 09:38:24;;;;;;;;;;;;;;;;;;5018732;28;42972;-80
2023/04/15 09:40:50;;;;;;;;;;;;;;;;;;5042117;28;43642;-78
2023/04/15 09:43:16;;;;;;;;;;;;;;;;;;5032664;28;42981;-82
2023/04/15 09:45:42;;;;;;;;;;;;;;;;;;5026702;28;42992;-84
2023/04/15 09:48:08;;;;;;;;;;;;;;;;;;5027111;28;42998;-83
2023/04/15 09:50:34;;;;;;;;;;;;;;;;;;5025396;28;45903;-77
2023/04/15 09:53:00;;;;;;;;;;;;;;;;;;5036919;28;42973;-77
2023/04/15 09:55:26;;;;;;;;;;;;;;;;;;5035962;28;43418;-82
2023/04/15 09:57:52;;;;;;;;;;;;;;;;;;5033692;28;43122;-77
2023/04/15 10:00:18;;;;;;;;;;;;;;;;;;5009001;28;42988;-78
2023/04/15 10:02:44;;;;;;;;;;;;;;;;;;5030931;28;43449;-80
2023/04/15 10:05:10;;;;;;;;;;;;;;;;;;5044547;28;43733;-82
2023/04/15 10:07:36;;;;;;;;;;;;;;;;;;5045362;28;43024;-84
2023/04/15 10:10:03;;;;;;;;;;;;;;;;;;5041993;28;43028;-79
2023/04/15 10:12:29;;;;;;;;;;;;;;;;;;5040139;28;42989;-85
2023/04/15 10:14:55;;;;;;;;;;;;;;;;;;5040807;28;43584;-78
2023/04/15 10:17:21;;;;;;;;;;;;;;;;;;5032808;28;43038;-81
2023/04/15 10:19:47;;;;;;;;;;;;;;;;;;5033670;28;42895;-81
2023/04/15 10:22:13;;;;;;;;;;;;;;;;;;5038067;28;42912;-80
2023/04/15 10:24:39;;;;;;;;;;;;;;;;;;5045111;28;43411;-82
2023/04/15 10:27:05;;;;;;;;;;;;;;;;;;5034323;28;42981;-80
2023/04/15 10:29:31;;;;;;;;;;;;;;;;;;5032639;28;43789;-84
2023/04/15 10:31:57;;;;;;;;;;;;;;;;;;5035571;28;43046;-81
2023/04/15 10:34:23;;;;;;;;;;;;;;;;;;5033724;28;43313;-76
2023/04/15 10:36:50;;;;;;;;;;;;;;;;;;5034936;28;42943;-81
2023/04/15 10:39:16;;;;;;;;;;;;;;;;;;5025150;28;43068;-79
2023/04/15 10:41:42;;;;;;;;;;;;;;;;;;5036490;28;43128;-80
2023/04/15 10:44:08;;;;;;;;;;;;;;;;;;5033053;28;43481;-83
2023/04/15 10:46:37;;;;;;;;;;;;;;;;;;5030932;28;43004;-80
2023/04/15 10:49:03;;;;;;;;;;;;;;;;;;5032692;28;43089;-85
2023/04/15 10:51:29;;;;;;;;;;;;;;;;;;5032932;28;42955;-79
2023/04/15 10:53:55;;;;;;;;;;;;;;;;;;5031306;28;42988;-76
2023/04/15 10:56:21;;;;;;;;;;;;;;;;;;5033900;28;42894;-78
2023/04/15 10:58:47;;;;;;;;;;;;;;;;;;5034418;28;43059;-78
2023/04/15 11:01:12;;;;;;;;;;;;;;;;;;5035835;28;42987;-80
2023/04/15 11:03:40;;;;;;;;;;;;;;;;;;5016730;28;42960;-80
2023/04/15 11:06:06;;;;;;;;;;;;;;;;;;5029373;28;43056;-80
2023/04/15 11:08:32;;;;;;;;;;;;;;;;;;5030970;28;43509;-79
2023/04/15 11:10:58;;;;;;;;;;;;;;;;;;5034273;28;42974;-79
2023/04/15 11:13:25;;;;;;;;;;;;;;;;;;5033563;28;43310;-79
2023/04/15 11:15:51;;;;;;;;;;;;;;;;;;5042179;28;42997;-80
2023/04/15 11:18:17;;;;;;;;;;;;;;;;;;5041891;28;43516;-79
2023/04/15 11:20:46;;;;;;;;;;;;;;;;;;5043320;28;42748;-81
2023/04/15 11:23:12;;;;;;;;;;;;;;;;;;5041532;28;44001;-81
2023/04/15 11:25:38;;;;;;;;;;;;;;;;;;5021632;28;43104;-81
2023/04/15 11:28:04;;;;;;;;;;;;;;;;;;5028900;28;43029;-80
2023/04/15 11:30:31;;;;;;;;;;;;;;;;;;5046860;28;43520;-79
2023/04/15 11:32:57;;;;;;;;;;;;;;;;;;5043765;28;42956;-80
2023/04/15 11:35:23;;;;;;;;;;;;;;;;;;5038000;28;43065;-78
2023/04/15 11:37:49;;;;;;;;;;;;;;;;;;5035230;28;43095;-76
2023/04/15 11:40:16;;;;;;;;;;;;;;;;;;5036154;28;43200;-77
2023/04/15 11:42:42;;;;;;;;;;;;;;;;;;5037231;28;42921;-79
2023/04/15 11:45:08;;;;;;;;;;;;;;;;;;5038561;28;43031;-77
2023/04/15 11:47:34;;;;;;;;;;;;;;;;;;5033569;28;43307;-77
2023/04/15 11:50:00;;;;;;;;;;;;;;;;;;5042805;28;43299;-77
2023/04/15 11:52:26;;;;;;;;;;;;;;;;;;5029217;28;42832;-83
2023/04/15 11:54:52;;;;;;;;;;;;;;;;;;5027328;28;42841;-80
2023/04/15 11:57:18;;;;;;;;;;;;;;;;;;5036580;28;44037;-79
2023/04/15 11:59:44;;;;;;;;;;;;;;;;;;5023917;28;42925;-77
2023/04/15 12:02:11;;;;;;;;;;;;;;;;;;5036992;28;43837;-87
2023/04/15 12:04:37;;;;;;;;;;;;;;;;;;5036361;28;43355;-84
2023/04/15 12:07:03;;;;;;;;;;;;;;;;;;5033692;28;44593;-82
2023/04/15 12:09:29;;;;;;;;;;;;;;;;;;5035201;28;43224;-81
2023/04/15 12:11:56;;;;;;;;;;;;;;;;;;5036009;28;43770;-78
2023/04/15 12:14:22;;;;;;;;;;;;;;;;;;5039359;28;42969;-83
2023/04/15 12:16:50;;;;;;;;;;;;;;;;;;5034729;28;63469;-80
2023/04/15 12:19:16;;;;;;;;;;;;;;;;;;5027284;28;42942;-85
2023/04/15 12:21:41;;;;;;;;;;;;;;;;;;5027356;28;42902;-84
2023/04/15 12:24:07;;;;;;;;;;;;;;;;;;5027295;28;43088;-82
2023/04/15 12:26:33;;;;;;;;;;;;;;;;;;5026756;28;43724;-83
2023/04/15 12:28:59;;;;;;;;;;;;;;;;;;5027044;28;42943;-81
2023/04/15 12:31:25;;;;;;;;;;;;;;;;;;5026224;28;43451;-79
2023/04/15 12:33:51;;;;;;;;;;;;;;;;;;5026609;28;42968;-78
2023/04/15 12:36:17;;;;;;;;;;;;;;;;;;5026841;28;43167;-80
2023/04/15 12:38:43;;;;;;;;;;;;;;;;;;5027206;28;42899;-79
2023/04/15 12:41:09;;;;;;;;;;;;;;;;;;5026431;28;42985;-79
2023/04/15 12:43:35;;;;;;;;;;;;;;;;;;5026492;28;42971;-80
2023/04/15 12:46:01;;;;;;;;;;;;;;;;;;5026811;28;42946;-78
2023/04/15 12:48:27;;;;;;;;;;;;;;;;;;5026350;28;43009;-78
2023/04/15 12:50:53;;;;;;;;;;;;;;;;;;5026993;28;42951;-88
2023/04/15 12:53:19;;;;;;;;;;;;;;;;;;5026371;28;42960;-83
2023/04/15 12:55:45;;;;;;;;;;;;;;;;;;5008741;28;45373;-89
2023/04/15 12:58:11;;;;;;;;;;;;;;;;;;5026930;28;43051;-89
2023/04/15 13:00:37;;;;;;;;;;;;;;;;;;5026597;28;43424;-88
2023/04/15 13:03:03;;;;;;;;;;;;;;;;;;5026778;28;42766;-88
2023/04/15 13:05:29;;;;;;;;;;;;;;;;;;5026636;28;43270;-89
2023/04/15 13:07:55;;;;;;;;;;;;;;;;;;5026729;28;42879;-89
2023/04/15 13:10:21;;;;;;;;;;;;;;;;;;5026424;28;43050;-90
2023/04/15 13:12:48;;;;;;;;;;;;;;;;;;5026373;28;42830;-90
2023/04/15 13:15:18;;;;;;;;;;;;;;;;;;5008297;28;45620;-89
2023/04/15 13:17:44;;;;;;;;;;;;;;;;;;5026346;28;42938;-89
2023/04/15 13:20:10;;;;;;;;;;;;;;;;;;5026352;28;42914;-90
2023/04/15 13:22:36;;;;;;;;;;;;;;;;;;5018083;28;42948;-90
2023/04/15 13:25:02;;;;;;;;;;;;;;;;;;5026059;28;42973;-78
2023/04/15 13:27:28;;;;;;;;;;;;;;;;;;5026502;28;42894;-78
2023/04/15 13:29:54;;;;;;;;;;;;;;;;;;5026486;28;43556;-78
2023/04/15 13:32:20;;;;;;;;;;;;;;;;;;5027001;28;43115;-78
2023/04/15 13:34:46;;;;;;;;;;;;;;;;;;5026409;28;43758;-88
2023/04/15 13:37:12;;;;;;;;;;;;;;;;;;5026102;28;43032;-78
2023/04/15 13:39:38;;;;;;;;;;;;;;;;;;5025974;28;43001;-77
2023/04/15 13:42:04;;;;;;;;;;;;;;;;;;5026348;28;42862;-78
2023/04/15 13:44:30;;;;;;;;;;;;;;;;;;5024881;28;43716;-77
2023/04/15 13:46:56;;;;;;;;;;;;;;;;;;5026011;28;42916;-80
2023/04/15 13:49:22;;;;;;;;;;;;;;;;;;5026079;28;43358;-86
2023/04/15 13:51:48;;;;;;;;;;;;;;;;;;5026098;28;42954;-77
2023/04/15 13:54:13;;;;;;;;;;;;;;;;;;5026180;28;43791;-82
2023/04/15 13:56:39;;;;;;;;;;;;;;;;;;5027312;28;42894;-77
2023/04/15 13:59:07;;;;;;;;;;;;;;;;;;5026323;28;43546;-77
2023/04/15 14:01:33;;;;;;;;;;;;;;;;;;5025916;28;43001;-79
2023/04/15 14:03:59;;;;;;;;;;;;;;;;;;5025748;28;42683;-77
2023/04/15 14:06:26;;;;;;;;;;;;;;;;;;5007842;28;42929;-79
2023/04/15 14:08:51;;;;;;;;;;;;;;;;;;5025907;28;43595;-78
2023/04/15 14:11:17;;;;;;;;;;;;;;;;;;5025748;28;43018;-85
2023/04/15 14:13:43;;;;;;;;;;;;;;;;;;5025987;28;44073;-92
2023/04/15 14:16:09;;;;;;;;;;;;;;;;;;5025763;28;42866;-78
2023/04/15 14:18:36;;;;;;;;;;;;;;;;;;5017374;28;42927;-77
2023/04/15 14:21:02;;;;;;;;;;;;;;;;;;5026004;28;42767;-81
2023/04/15 14:23:28;;;;;;;;;;;;;;;;;;5025541;28;42842;-76
2023/04/15 14:25:54;;;;;;;;;;;;;;;;;;5025472;28;42953;-78
2023/04/15 14:28:20;;;;;;;;;;;;;;;;;;5006933;28;45675;-87
2023/04/15 14:30:46;;;;;;;;;;;;;;;;;;5025721;28;43011;-78
2023/04/15 14:33:11;;;;;;;;;;;;;;;;;;5024678;28;43640;-78
2023/04/15 14:35:37;;;;;;;;;;;;;;;;;;5025080;28;43052;-78
2023/04/15 14:38:04;;;;;;;;;;;;;;;;;;5025588;28;43525;-78
2023/04/15 14:40:30;;;;;;;;;;;;;;;;;;5025353;28;42980;-82
2023/04/15 14:42:56;;;;;;;;;;;;;;;;;;5024721;28;42858;-82
2023/04/15 14:45:22;;;;;;;;;;;;;;;;;;5025406;28;42784;-79
2023/04/15 14:47:48;;;;;;;;;;;;;;;;;;5025109;28;42912;-80
2023/04/15 14:50:14;;;;;;;;;;;;;;;;;;4985606;28;42905;-77
2023/04/15 14:52:40;;;;;;;;;;;;;;;;;;5005434;28;43538;-77
2023/04/15 14:55:09;;;;;;;;;;;;;;;;;;5005524;28;42701;-90
2023/04/15 14:57:36;;;;;;;;;;;;;;;;;;4987918;28;44412;-78
2023/04/15 15:00:02;;;;;;;;;;;;;;;;;;5004832;28;42955;-79
2023/04/15 15:02:28;;;;;;;;;;;;;;;;;;5005370;28;42931;-79
2023/04/15 15:04:54;;;;;;;;;;;;;;;;;;5004974;28;42910;-77
2023/04/15 15:07:20;;;;;;;;;;;;;;;;;;4986802;28;44759;-86
2023/04/15 15:09:46;;;;;;;;;;;;;;;;;;5004876;28;42947;-82
2023/04/15 15:12:12;;;;;;;;;;;;;;;;;;5004812;28;43498;-78
2023/04/15 15:14:37;;;;;;;;;;;;;;;;;;5005218;28;42871;-77
2023/04/15 15:17:03;;;;;;;;;;;;;;;;;;5005175;28;43830;-78
2023/04/15 15:19:29;;;;;;;;;;;;;;;;;;4988068;28;42852;-80
2023/04/15 15:21:55;;;;;;;;;;;;;;;;;;5006089;28;42966;-77
2023/04/15 15:24:21;;;;;;;;;;;;;;;;;;5005449;28;43100;-77
2023/04/15 15:26:47;;;;;;;;;;;;;;;;;;5004862;28;42950;-78
2023/04/15 15:29:13;;;;;;;;;;;;;;;;;;5004789;28;42945;-78
2023/04/15 15:31:39;;;;;;;;;;;;;;;;;;5004863;28;42844;-79
2023/04/15 15:34:05;;;;;;;;;;;;;;;;;;5005133;28;42871;-79
2023/04/15 15:36:31;;;;;;;;;;;;;;;;;;5004812;28;42949;-81
2023/04/15 15:38:57;;;;;;;;;;;;;;;;;;5004615;28;42927;-78
2023/04/15 15:41:24;;;;;;;;;;;;;;;;;;5004735;28;43789;-80
2023/04/15 15:43:50;;;;;;;;;;;;;;;;;;5004713;28;42875;-78
2023/04/15 15:46:16;;;;;;;;;;;;;;;;;;5005034;28;42808;-77
2023/04/15 15:48:42;;;;;;;;;;;;;;;;;;4992605;28;42975;-80
2023/04/15 15:51:08;;;;;;;;;;;;;;;;;;5024321;28;42982;-78
2023/04/15 15:53:34;;;;;;;;;;;;;;;;;;5024311;28;42934;-79
2023/04/15 15:56:00;;;;;;;;;;;;;;;;;;5006133;28;44612;-77
2023/04/15 15:58:26;;;;;;;;;;;;;;;;;;5024173;28;42741;-90
2023/04/15 16:00:51;;;;;;;;;;;;;;;;;;5024717;28;42839;-84
2023/04/15 16:03:17;;;;;;;;;;;;;;;;;;5024676;28;42952;-81
2023/04/15 16:05:43;;;;;;;;;;;;;;;;;;5024597;28;43083;-80
2023/04/15 16:08:09;;;;;;;;;;;;;;;;;;5027444;28;43055;-80
2023/04/15 16:10:35;;;;;;;;;;;;;;;;;;5027275;28;43528;-80
2023/04/15 16:13:01;;;;;;;;;;;;;;;;;;5028171;28;42974;-80
2023/04/15 16:15:27;;;;;;;;;;;;;;;;;;5026837;28;42913;-84
2023/04/15 16:17:53;;;;;;;;;;;;;;;;;;5009575;28;42756;-78
2023/04/15 16:20:19;;;;;;;;;;;;;;;;;;5027298;28;43014;-82
2023/04/15 16:22:45;;;;;;;;;;;;;;;;;;5027193;28;42744;-77
2023/04/15 16:25:11;;;;;;;;;;;;;;;;;;5027638;28;42803;-83
2023/04/15 16:27:37;;;;;;;;;;;;;;;;;;5027094;28;42908;-78
2023/04/15 16:30:03;;;;;;;;;;;;;;;;;;5027323;28;42947;-82
2023/04/15 16:32:29;;;;;;;;;;;;;;;;;;5027790;28;42914;-78
2023/04/15 16:34:55;;;;;;;;;;;;;;;;;;5026894;28;42952;-77
2023/04/15 16:37:21;;;;;;;;;;;;;;;;;;5027621;28;42910;-77